Greers Ferry, Arkansas
Current Conditions -  °F | °C
As of 11:56 AM on Thursday 30 Oct 2014 (Local Time) from KSRC Reporting Station
Clear Clear  
Wind Chill: 64°   Ceiling: Unl
Heat Index: 64°   Visibility: 10mi
Dew Point: 44°   Wind: 5mph
Humidity: 48%   Direction: 160°SSE
Pressure: 30.16"   Gusts: NA
Location:  35.4984°N, 92.2059°W
Report Text: KSRC 301656Z AUTO 16004KT 10SM CLR 18/07 A3016 RMK AO2 SLP220 T01780067 TSNO
Loading
Personal Weather Stations






























Interactive Weather Map
Tropical Storm Tracking
New forecast layout! Learn more

10-Day Weather Forecast

Advertisements
Track Severe Weather on mobile